Dunnsville, Virginia
Current Conditions -  °F | °C
As of 5:55 PM on Tuesday 27 Jan 2015 (Local Time) from KXSA Reporting Station
Overcast Overcast  
Wind Chill: 28°   Ceiling: 10000
Heat Index: 34°   Visibility: 10mi
Dew Point: 22°   Wind: 7mph
Humidity: 60%   Direction: 320°NW
Pressure: 29.85"   Gusts: NA
Location:  37.86°N, 76.82°W
Report Text: KXSA 272255Z AUTO 32006KT 10SM SCT085 OVC100 01/M06 A2985 RMK AO2 T00111058
Loading
Personal Weather Stations






























Interactive Weather Map New forecast layout! Learn more

10-Day Weather Forecast

Advertisements
Track Severe Weather on mobile